createdAt,value
2019-05-05T00:02:28.042Z,62.30
2019-05-05T00:04:59.440Z,62.40
2019-05-05T00:07:30.329Z,62.60
2019-05-05T00:10:00.268Z,62.80
2019-05-05T00:12:36.302Z,62.90
2019-05-05T00:15:16.967Z,63.00
2019-05-05T00:17:46.963Z,62.90
2019-05-05T00:20:16.781Z,62.90
2019-05-05T00:22:46.661Z,63.80
2019-05-05T00:25:16.505Z,63.00
2019-05-05T00:27:46.439Z,63.00
2019-05-05T00:30:16.371Z,63.10
2019-05-05T00:32:46.250Z,63.10
2019-05-05T00:35:16.067Z,63.00
2019-05-05T00:37:45.946Z,62.40
2019-05-05T00:40:16.359Z,63.00
2019-05-05T00:42:46.293Z,63.00
2019-05-05T00:45:16.121Z,63.00
2019-05-05T00:47:54.433Z,63.10
2019-05-05T00:50:25.212Z,63.10
2019-05-05T00:52:55.360Z,63.20
2019-05-05T00:55:25.938Z,63.20
2019-05-05T00:58:00.525Z,63.20
2019-05-05T01:00:41.222Z,63.20
2019-05-05T01:03:11.944Z,64.40
2019-05-05T01:05:55.789Z,63.60
2019-05-05T01:11:18.965Z,63.80
2019-05-05T01:13:49.502Z,64.80
2019-05-05T01:16:19.362Z,64.10
2019-05-05T01:18:50.413Z,64.10
2019-05-05T01:21:20.232Z,64.20
2019-05-05T01:23:50.033Z,64.30
2019-05-05T01:26:19.928Z,64.40
2019-05-05T01:28:49.749Z,64.40
2019-05-05T01:31:20.578Z,64.40
2019-05-05T01:33:58.793Z,64.50
2019-05-05T01:36:30.205Z,64.40
2019-05-05T01:39:17.984Z,64.50
2019-05-05T01:41:49.436Z,64.50
2019-05-05T01:44:19.263Z,64.60
2019-05-05T01:46:49.142Z,65.00
2019-05-05T01:49:19.012Z,65.20
2019-05-05T01:51:48.913Z,65.30
2019-05-05T01:54:18.734Z,65.30
2019-05-05T01:56:52.271Z,65.30
2019-05-05T01:59:26.626Z,65.30
2019-05-05T02:01:56.481Z,65.20
2019-05-05T02:04:27.447Z,65.20
2019-05-05T02:06:57.350Z,65.30
2019-05-05T02:09:35.418Z,65.20
2019-05-05T02:12:05.480Z,65.10
2019-05-05T02:14:36.456Z,65.40
2019-05-05T02:17:06.281Z,65.70
2019-05-05T02:19:36.271Z,66.20
2019-05-05T02:22:06.190Z,66.50
2019-05-05T02:24:36.164Z,67.00
2019-05-05T02:27:06.105Z,67.10
2019-05-05T02:29:40.647Z,67.10
2019-05-05T02:32:30.757Z,67.10
2019-05-05T02:35:08.302Z,67.00
2019-05-05T02:37:38.136Z,66.90
2019-05-05T02:40:09.598Z,66.80
2019-05-05T02:42:40.330Z,66.80
2019-05-05T02:45:12.036Z,66.60
2019-05-05T02:47:47.131Z,66.70
2019-05-05T02:50:18.418Z,66.80
2019-05-05T02:52:49.418Z,66.70
2019-05-05T02:55:20.870Z,66.70
2019-05-05T02:58:08.677Z,66.70
2019-05-05T03:00:55.420Z,66.80
2019-05-05T03:03:25.714Z,66.70
2019-05-05T03:05:56.002Z,66.70
2019-05-05T03:08:27.432Z,66.60
2019-05-05T03:10:59.309Z,66.70
2019-05-05T03:13:33.580Z,66.70
2019-05-05T03:16:23.822Z,66.60
2019-05-05T03:18:55.732Z,66.70
2019-05-05T03:21:26.013Z,66.70
2019-05-05T03:23:56.455Z,66.70
2019-05-05T03:26:26.544Z,66.80
2019-05-05T03:29:00.970Z,66.80
2019-05-05T03:31:30.930Z,66.90
2019-05-05T03:34:01.068Z,66.90
2019-05-05T03:36:30.987Z,66.90
2019-05-05T03:39:05.164Z,66.90
2019-05-05T03:41:40.112Z,67.00
2019-05-05T03:44:17.751Z,67.10
2019-05-05T03:46:47.767Z,67.10
2019-05-05T03:49:17.796Z,67.30
2019-05-05T03:51:47.806Z,67.40
2019-05-05T03:54:18.388Z,67.50
2019-05-05T03:56:49.993Z,67.70
2019-05-05T03:59:19.972Z,67.90
2019-05-05T04:01:54.665Z,68.10
2019-05-05T04:04:29.080Z,68.10
2019-05-05T04:07:00.417Z,68.10
2019-05-05T04:09:34.568Z,68.20
2019-05-05T04:12:04.714Z,68.10
2019-05-05T04:14:34.897Z,68.10
2019-05-05T04:17:15.761Z,68.20
2019-05-05T04:19:47.200Z,68.20
2019-05-05T04:22:20.156Z,68.20
2019-05-05T04:24:50.071Z,68.20
2019-05-05T04:27:19.929Z,68.30
2019-05-05T04:29:49.879Z,68.30
2019-05-05T04:32:19.692Z,68.40
2019-05-05T04:34:49.572Z,68.40
2019-05-05T04:37:19.533Z,68.40
2019-05-05T04:40:07.381Z,68.40
2019-05-05T04:42:37.359Z,68.40
2019-05-05T04:45:07.837Z,68.40
2019-05-05T04:47:48.270Z,68.40
2019-05-05T04:50:44.093Z,68.40
2019-05-05T04:53:13.529Z,68.40
2019-05-05T04:55:44.291Z,68.40
2019-05-05T04:58:14.375Z,67.70
2019-05-05T05:00:44.289Z,68.50
2019-05-05T05:03:32.065Z,68.50
2019-05-05T05:06:05.031Z,68.50
2019-05-05T05:08:34.986Z,68.50
2019-05-05T05:11:04.843Z,68.60
2019-05-05T05:13:34.887Z,68.60
2019-05-05T05:16:05.904Z,68.60
2019-05-05T05:18:35.761Z,69.10
2019-05-05T05:21:05.626Z,68.70
2019-05-05T05:23:35.439Z,68.70
2019-05-05T05:26:05.411Z,68.70
2019-05-05T05:28:35.281Z,68.70
2019-05-05T05:31:05.132Z,68.80
2019-05-05T05:33:34.971Z,68.80
2019-05-05T05:36:04.830Z,68.80
2019-05-05T05:38:43.785Z,68.80
2019-05-05T05:41:16.331Z,68.90
2019-05-05T05:43:57.100Z,68.90
2019-05-05T05:46:34.633Z,68.80
2019-05-05T05:49:10.963Z,68.80
2019-05-05T05:51:40.861Z,69.70
2019-05-05T05:54:10.685Z,68.80
2019-05-05T05:56:40.518Z,68.90
2019-05-05T05:59:16.414Z,69.00
2019-05-05T06:01:46.275Z,69.00
2019-05-05T06:04:16.141Z,69.10
2019-05-05T06:06:45.967Z,69.00
2019-05-05T06:09:23.765Z,69.20
2019-05-05T06:11:54.185Z,69.20
2019-05-05T06:14:26.888Z,69.20
2019-05-05T06:16:56.716Z,69.20
2019-05-05T06:19:26.623Z,69.30
2019-05-05T06:21:56.496Z,69.30
2019-05-05T06:24:26.311Z,69.40
2019-05-05T06:26:56.099Z,69.60
2019-05-05T06:29:26.002Z,69.60
2019-05-05T06:31:55.863Z,69.90
2019-05-05T06:34:25.813Z,70.00
2019-05-05T06:36:55.613Z,70.10
2019-05-05T06:39:25.533Z,70.30
2019-05-05T06:41:56.999Z,70.50
2019-05-05T06:44:34.434Z,70.60
2019-05-05T06:47:08.997Z,70.70
2019-05-05T06:49:48.972Z,70.60
2019-05-05T06:52:18.973Z,70.60
2019-05-05T06:54:48.792Z,70.70
2019-05-05T06:57:18.600Z,70.70
2019-05-05T06:59:48.477Z,70.80
2019-05-05T07:02:20.619Z,70.90
2019-05-05T07:04:56.636Z,71.10
2019-05-05T07:07:26.654Z,70.70
2019-05-05T07:10:14.079Z,70.60
2019-05-05T07:12:45.228Z,70.10
2019-05-05T07:15:16.329Z,70.00
2019-05-05T07:17:56.652Z,69.60
2019-05-05T07:21:27.189Z,69.40
2019-05-05T07:23:27.041Z,69.20
2019-05-05T07:25:57.009Z,69.00
2019-05-05T07:28:26.891Z,69.00
2019-05-05T07:30:56.857Z,69.00
2019-05-05T07:33:28.597Z,68.80
2019-05-05T07:36:20.113Z,68.70
2019-05-05T07:38:54.844Z,68.50
2019-05-05T07:41:28.514Z,68.50
2019-05-05T07:44:01.613Z,68.40
2019-05-05T07:46:31.537Z,68.40
2019-05-05T07:49:05.587Z,68.20
2019-05-05T07:51:35.437Z,68.00
2019-05-05T07:54:05.354Z,67.80
2019-05-05T07:56:37.869Z,67.70
2019-05-05T07:59:08.324Z,67.50
2019-05-05T08:01:43.073Z,67.50
2019-05-05T08:04:17.484Z,67.30
2019-05-05T08:07:14.709Z,67.00
2019-05-05T08:09:39.757Z,66.60
2019-05-05T08:12:15.806Z,65.80
2019-05-05T08:14:45.732Z,66.00
2019-05-05T08:17:25.451Z,65.60
